createdAt,value
2017-05-26T00:00:06.815Z,0
2017-05-26T00:01:16.107Z,0
2017-05-26T00:02:25.065Z,0
2017-05-26T00:03:34.025Z,0
2017-05-26T00:04:42.981Z,0
2017-05-26T00:05:51.941Z,0
2017-05-26T00:07:01.192Z,0
2017-05-26T00:08:10.148Z,0
2017-05-26T00:09:19.114Z,0
2017-05-26T00:10:28.072Z,0
2017-05-26T00:11:37.117Z,0
2017-05-26T00:12:46.327Z,0
2017-05-26T00:13:55.675Z,0
2017-05-26T00:15:04.641Z,0
2017-05-26T00:16:13.602Z,0
2017-05-26T00:17:22.565Z,0
2017-05-26T00:18:31.788Z,0
2017-05-26T00:19:40.750Z,0
2017-05-26T00:20:49.711Z,0
2017-05-26T00:21:58.668Z,0
2017-05-26T00:23:07.628Z,0
2017-05-26T00:24:16.924Z,0
2017-05-26T00:25:25.886Z,0
2017-05-26T00:26:34.842Z,0
2017-05-26T00:27:43.811Z,0
2017-05-26T00:28:52.858Z,0
2017-05-26T00:30:02.074Z,0
2017-05-26T00:31:11.035Z,0
2017-05-26T00:32:20.089Z,0
2017-05-26T00:33:29.049Z,0
2017-05-26T00:34:38.005Z,0
2017-05-26T00:35:47.543Z,0
2017-05-26T00:36:56.501Z,0
2017-05-26T00:38:05.471Z,0
2017-05-26T00:39:14.433Z,0
2017-05-26T00:40:23.391Z,0
2017-05-26T00:41:32.596Z,0
2017-05-26T00:42:41.562Z,0
2017-05-26T00:43:50.529Z,0
2017-05-26T00:44:59.497Z,0
2017-05-26T00:46:08.463Z,0
2017-05-26T00:47:17.674Z,0
2017-05-26T00:48:26.631Z,0
2017-05-26T00:49:35.584Z,0
2017-05-26T00:50:44.546Z,0
2017-05-26T00:51:53.516Z,0
2017-05-26T00:53:02.728Z,0
2017-05-26T00:54:11.688Z,0
2017-05-26T00:55:20.650Z,0
2017-05-26T00:56:29.613Z,0
2017-05-26T00:57:38.570Z,0
2017-05-26T00:58:47.779Z,0
2017-05-26T00:59:56.828Z,0
2017-05-26T01:01:05.795Z,0
2017-05-26T01:02:14.753Z,0
2017-05-26T01:03:23.713Z,0
2017-05-26T01:04:33.010Z,0
2017-05-26T01:05:41.970Z,0
2017-05-26T01:06:50.930Z,0
2017-05-26T01:08:00.223Z,0
2017-05-26T01:09:09.179Z,0
2017-05-26T01:10:18.436Z,0
2017-05-26T01:11:27.486Z,0
2017-05-26T01:12:36.785Z,0
2017-05-26T01:13:45.757Z,0
2017-05-26T01:14:54.725Z,0
2017-05-26T01:16:03.937Z,0
2017-05-26T01:17:12.899Z,0
2017-05-26T01:18:21.951Z,0
2017-05-26T01:19:30.915Z,0
2017-05-26T01:20:39.873Z,0
2017-05-26T01:21:49.079Z,0
2017-05-26T01:22:58.049Z,0
2017-05-26T01:24:07.011Z,0
2017-05-26T01:25:15.968Z,0
2017-05-26T01:26:24.928Z,0
2017-05-26T01:27:34.140Z,0
2017-05-26T01:28:43.199Z,0
2017-05-26T01:29:52.163Z,0
2017-05-26T01:31:01.120Z,0
2017-05-26T01:32:10.080Z,0
2017-05-26T01:33:19.335Z,0
2017-05-26T01:34:28.304Z,0
2017-05-26T01:35:37.266Z,0
2017-05-26T01:36:46.217Z,0
2017-05-26T01:37:55.179Z,0
2017-05-26T01:39:04.388Z,0
2017-05-26T01:40:13.354Z,0
2017-05-26T01:41:22.312Z,0
2017-05-26T01:42:31.415Z,0
2017-05-26T01:43:40.380Z,0
2017-05-26T01:44:49.594Z,0
2017-05-26T01:45:58.552Z,0
2017-05-26T01:47:07.514Z,0
2017-05-26T01:48:16.483Z,0
2017-05-26T01:49:25.452Z,0
2017-05-26T01:50:34.712Z,0
2017-05-26T01:51:43.742Z,0
2017-05-26T01:52:52.700Z,0
2017-05-26T01:54:01.665Z,0
2017-05-26T01:55:10.619Z,0
2017-05-26T01:56:19.832Z,0
2017-05-26T01:57:28.794Z,0
2017-05-26T01:58:37.752Z,0
2017-05-26T01:59:46.712Z,0
2017-05-26T02:00:55.676Z,0
2017-05-26T02:02:04.883Z,0
2017-05-26T02:03:13.844Z,0
2017-05-26T02:04:22.857Z,0
2017-05-26T02:05:31.816Z,0
2017-05-26T02:06:40.774Z,0
2017-05-26T02:07:50.036Z,0
2017-05-26T02:08:58.999Z,0
2017-05-26T02:10:07.961Z,0
2017-05-26T02:11:16.919Z,0
2017-05-26T02:12:25.938Z,0
2017-05-26T02:13:35.149Z,0
2017-05-26T02:14:44.113Z,0
2017-05-26T02:15:53.073Z,0
2017-05-26T02:17:02.034Z,0
2017-05-26T02:18:11.001Z,0
2017-05-26T02:19:20.264Z,0
2017-05-26T02:20:29.554Z,0
2017-05-26T02:21:38.513Z,0
2017-05-26T02:22:47.545Z,0
2017-05-26T02:23:56.501Z,0
2017-05-26T02:25:05.719Z,0
2017-05-26T02:26:14.673Z,0
2017-05-26T02:27:23.632Z,0
2017-05-26T02:28:32.593Z,0
2017-05-26T02:29:41.565Z,0
2017-05-26T02:30:50.828Z,0
2017-05-26T02:31:59.791Z,0
2017-05-26T02:33:08.757Z,0
2017-05-26T02:34:17.767Z,0
2017-05-26T02:35:26.723Z,0
2017-05-26T02:36:36.036Z,0
2017-05-26T02:37:44.992Z,0
2017-05-26T02:38:53.950Z,0
2017-05-26T02:40:02.913Z,0
2017-05-26T02:41:11.872Z,0
2017-05-26T02:42:21.086Z,0
2017-05-26T02:43:30.043Z,0
2017-05-26T02:44:39.093Z,0
2017-05-26T02:45:48.052Z,0
2017-05-26T02:46:57.007Z,0
2017-05-26T02:48:06.272Z,0
2017-05-26T02:49:15.230Z,0
2017-05-26T02:50:24.188Z,0
2017-05-26T02:51:33.147Z,0
2017-05-26T02:52:42.102Z,0
2017-05-26T02:53:51.316Z,0
2017-05-26T02:55:00.361Z,0
2017-05-26T02:56:09.327Z,0
2017-05-26T02:57:18.284Z,0
2017-05-26T02:58:27.249Z,0
2017-05-26T02:59:36.465Z,0
2017-05-26T03:00:45.429Z,0
2017-05-26T03:01:54.447Z,0
2017-05-26T03:03:03.409Z,0
2017-05-26T03:04:12.374Z,0
2017-05-26T03:05:21.632Z,0
2017-05-26T03:06:30.588Z,0
2017-05-26T03:07:39.542Z,0
2017-05-26T03:08:48.681Z,0
2017-05-26T03:09:57.644Z,0
2017-05-26T03:11:07.228Z,0
2017-05-26T03:12:16.186Z,0
2017-05-26T03:13:25.149Z,0
2017-05-26T03:14:34.112Z,0
2017-05-26T03:15:43.065Z,0
2017-05-26T03:16:52.281Z,0
2017-05-26T03:18:01.245Z,0
2017-05-26T03:19:10.201Z,0
2017-05-26T03:20:19.162Z,0
2017-05-26T03:21:28.116Z,0
2017-05-26T03:22:37.327Z,0
2017-05-26T03:23:46.606Z,0
2017-05-26T03:24:55.565Z,0
2017-05-26T03:26:04.520Z,0
2017-05-26T03:27:13.481Z,0
2017-05-26T03:28:22.695Z,0
2017-05-26T03:29:31.659Z,0
2017-05-26T03:30:40.999Z,5
2017-05-26T03:31:49.950Z,5
2017-05-26T03:32:58.913Z,5
2017-05-26T03:34:08.118Z,5
2017-05-26T03:35:17.083Z,5
2017-05-26T03:36:26.047Z,5
2017-05-26T03:37:35.005Z,5
2017-05-26T03:38:43.976Z,5
2017-05-26T03:39:53.182Z,5
2017-05-26T03:41:02.140Z,5
2017-05-26T03:42:11.099Z,5
2017-05-26T03:43:20.058Z,5
2017-05-26T03:44:29.017Z,5
2017-05-26T03:45:38.226Z,5
2017-05-26T03:46:47.185Z,5
2017-05-26T03:47:56.153Z,5
2017-05-26T03:49:05.117Z,5
2017-05-26T03:50:14.078Z,5
2017-05-26T03:51:23.289Z,5
2017-05-26T03:52:32.251Z,5
2017-05-26T03:53:41.216Z,5
2017-05-26T03:54:50.169Z,5
2017-05-26T03:55:59.141Z,5
2017-05-26T03:57:08.350Z,5
2017-05-26T03:58:17.307Z,10
2017-05-26T03:59:26.269Z,10
2017-05-26T04:00:35.317Z,10
2017-05-26T04:01:44.272Z,10
2017-05-26T04:02:53.535Z,10
2017-05-26T04:04:02.506Z,10
2017-05-26T04:05:11.792Z,10
2017-05-26T04:06:20.762Z,10
2017-05-26T04:07:29.722Z,10
2017-05-26T04:08:38.990Z,10
2017-05-26T04:09:47.958Z,10
2017-05-26T04:10:56.913Z,10
2017-05-26T04:12:05.868Z,10
2017-05-26T04:13:14.832Z,10
2017-05-26T04:14:24.040Z,10
2017-05-26T04:15:33.059Z,10
2017-05-26T04:16:42.011Z,15
2017-05-26T04:17:50.977Z,15
2017-05-26T04:19:00.269Z,15
2017-05-26T04:20:09.527Z,15
2017-05-26T04:21:18.492Z,15
2017-05-26T04:22:27.452Z,15
2017-05-26T04:23:36.414Z,20
2017-05-26T04:24:45.374Z,15
2017-05-26T04:25:54.634Z,15
2017-05-26T04:27:03.590Z,15
2017-05-26T04:28:12.563Z,15
2017-05-26T04:29:21.523Z,15
2017-05-26T04:30:30.475Z,20
2017-05-26T04:31:39.679Z,20
2017-05-26T04:32:48.646Z,20
2017-05-26T04:33:57.614Z,20
2017-05-26T04:35:06.576Z,20
2017-05-26T04:36:15.538Z,25
2017-05-26T04:37:24.751Z,25
2017-05-26T04:38:33.708Z,30
2017-05-26T04:39:42.668Z,30
2017-05-26T04:40:51.626Z,30
2017-05-26T04:42:00.587Z,30
2017-05-26T04:43:09.792Z,25
2017-05-26T04:44:18.755Z,25
2017-05-26T04:45:27.716Z,25
2017-05-26T04:46:36.675Z,20
2017-05-26T04:47:45.636Z,20
2017-05-26T04:48:54.893Z,20
2017-05-26T04:50:03.860Z,20
2017-05-26T04:51:12.906Z,20
2017-05-26T04:52:21.864Z,20
2017-05-26T04:53:30.826Z,20
2017-05-26T04:54:40.036Z,20
2017-05-26T04:55:48.993Z,15
2017-05-26T04:56:57.950Z,15
2017-05-26T04:58:07.245Z,15
2017-05-26T04:59:16.293Z,15
2017-05-26T05:00:25.548Z,15
2017-05-26T05:01:34.508Z,15
2017-05-26T05:02:43.475Z,15
2017-05-26T05:03:52.459Z,20
2017-05-26T05:05:01.418Z,15
2017-05-26T05:06:10.633Z,15
2017-05-26T05:07:19.593Z,15
2017-05-26T05:08:28.559Z,20
2017-05-26T05:09:37.517Z,20
2017-05-26T05:10:46.479Z,20
2017-05-26T05:11:55.738Z,20
2017-05-26T05:13:04.782Z,20
2017-05-26T05:14:13.745Z,20
2017-05-26T05:15:22.712Z,15
2017-05-26T05:16:31.679Z,15
2017-05-26T05:17:40.889Z,15
2017-05-26T05:18:49.861Z,15
2017-05-26T05:19:58.823Z,15
2017-05-26T05:21:07.782Z,15
2017-05-26T05:22:16.743Z,15
2017-05-26T05:23:25.963Z,15
2017-05-26T05:24:34.927Z,15
2017-05-26T05:25:43.882Z,15
2017-05-26T05:26:52.928Z,15
2017-05-26T05:28:01.889Z,15
2017-05-26T05:29:11.098Z,15
2017-05-26T05:30:20.059Z,15
2017-05-26T05:31:29.013Z,15
2017-05-26T05:32:37.979Z,20
2017-05-26T05:33:47.267Z,20
2017-05-26T05:34:56.479Z,20
2017-05-26T05:36:05.435Z,20
2017-05-26T05:37:14.397Z,15
2017-05-26T05:38:23.364Z,15
2017-05-26T05:39:32.325Z,20
2017-05-26T05:40:41.539Z,20
2017-05-26T05:41:50.549Z,20
2017-05-26T05:42:59.517Z,20
2017-05-26T05:44:08.474Z,20
2017-05-26T05:45:17.430Z,20
2017-05-26T05:46:26.641Z,20
2017-05-26T05:47:35.598Z,20
2017-05-26T05:48:44.561Z,20
2017-05-26T05:49:53.520Z,20
2017-05-26T05:51:02.488Z,20
2017-05-26T05:52:11.698Z,20
2017-05-26T05:53:20.662Z,20
2017-05-26T05:54:29.622Z,25
2017-05-26T05:55:38.580Z,20
2017-05-26T05:56:47.623Z,20
2017-05-26T05:57:56.835Z,25
2017-05-26T05:59:05.793Z,25
2017-05-26T06:00:14.750Z,25
2017-05-26T06:01:23.709Z,25
2017-05-26T06:02:32.669Z,25
2017-05-26T06:03:41.876Z,25
2017-05-26T06:04:50.851Z,25
2017-05-26T06:05:59.897Z,25
2017-05-26T06:07:08.856Z,25
2017-05-26T06:08:17.816Z,25
2017-05-26T06:09:27.028Z,20
2017-05-26T06:10:35.988Z,20
2017-05-26T06:11:44.945Z,20
2017-05-26T06:12:53.911Z,25
2017-05-26T06:14:02.873Z,20
2017-05-26T06:15:12.409Z,20
2017-05-26T06:16:21.370Z,20
2017-05-26T06:17:30.336Z,20
2017-05-26T06:18:39.296Z,20
2017-05-26T06:19:48.252Z,20
2017-05-26T06:20:57.460Z,20
2017-05-26T06:22:06.421Z,20
2017-05-26T06:23:15.377Z,20
2017-05-26T06:24:24.339Z,20
2017-05-26T06:25:33.297Z,20
2017-05-26T06:26:42.504Z,20
2017-05-26T06:27:51.462Z,20
2017-05-26T06:29:00.424Z,20
2017-05-26T06:30:09.383Z,20
2017-05-26T06:31:18.345Z,20
2017-05-26T06:32:27.559Z,20
2017-05-26T06:33:36.520Z,20
2017-05-26T06:34:45.542Z,20
2017-05-26T06:35:54.504Z,25
2017-05-26T06:37:03.468Z,25
2017-05-26T06:38:12.732Z,25
2017-05-26T06:39:21.692Z,20
2017-05-26T06:40:30.653Z,20
2017-05-26T06:41:39.614Z,20
2017-05-26T06:42:48.573Z,20
2017-05-26T06:43:57.781Z,20
2017-05-26T06:45:07.067Z,20
2017-05-26T06:46:16.025Z,20
2017-05-26T06:47:24.988Z,20
2017-05-26T06:48:33.950Z,20
2017-05-26T06:49:43.162Z,20
2017-05-26T06:50:52.117Z,20
2017-05-26T06:52:01.073Z,20
2017-05-26T06:53:10.037Z,20
2017-05-26T06:54:19.007Z,20
2017-05-26T06:55:28.208Z,20
2017-05-26T06:56:37.168Z,20
2017-05-26T06:57:46.139Z,25
2017-05-26T06:58:55.120Z,25
2017-05-26T07:00:04.077Z,20
2017-05-26T07:01:13.289Z,20
2017-05-26T07:02:22.253Z,20
2017-05-26T07:03:31.301Z,20
2017-05-26T07:04:40.259Z,20
2017-05-26T07:05:49.221Z,20
2017-05-26T07:06:58.439Z,20
2017-05-26T07:08:07.399Z,15
2017-05-26T07:09:16.356Z,20
2017-05-26T07:10:25.404Z,20
2017-05-26T07:11:34.366Z,20
2017-05-26T07:12:43.583Z,20
2017-05-26T07:13:52.544Z,20
2017-05-26T07:15:01.509Z,20
2017-05-26T07:16:10.468Z,20
2017-05-26T07:17:19.428Z,25
2017-05-26T07:18:28.686Z,25
2017-05-26T07:19:37.644Z,20
2017-05-26T07:20:46.605Z,25
2017-05-26T07:21:55.568Z,25
2017-05-26T07:23:04.529Z,25
2017-05-26T07:24:13.738Z,25
2017-05-26T07:25:22.698Z,25
2017-05-26T07:26:31.659Z,25
2017-05-26T07:27:40.623Z,25
2017-05-26T07:28:49.587Z,25
2017-05-26T07:29:58.805Z,25
2017-05-26T07:31:07.760Z,25
2017-05-26T07:32:16.723Z,25
2017-05-26T07:33:25.680Z,25
2017-05-26T07:34:34.643Z,30
2017-05-26T07:35:43.904Z,30
2017-05-26T07:36:52.861Z,35
2017-05-26T07:38:01.825Z,30
2017-05-26T07:39:10.793Z,35
2017-05-26T07:40:19.748Z,40
2017-05-26T07:41:29.007Z,45
2017-05-26T07:42:37.965Z,40
2017-05-26T07:43:46.933Z,45
2017-05-26T07:44:55.903Z,45
2017-05-26T07:46:04.866Z,45
2017-05-26T07:47:14.082Z,40
2017-05-26T07:48:23.045Z,35
2017-05-26T07:49:32.002Z,40
2017-05-26T07:50:40.962Z,35
2017-05-26T07:51:49.918Z,40
2017-05-26T07:52:59.133Z,40
2017-05-26T07:54:08.431Z,40
2017-05-26T07:55:17.480Z,35
2017-05-26T07:56:26.443Z,45
2017-05-26T07:57:35.400Z,40
2017-05-26T07:58:44.609Z,40
2017-05-26T07:59:53.571Z,40
2017-05-26T08:01:02.533Z,45
2017-05-26T08:02:11.493Z,50
2017-05-26T08:03:20.548Z,55
2017-05-26T08:04:29.810Z,60
2017-05-26T08:05:38.769Z,75
2017-05-26T08:06:47.732Z,70
2017-05-26T08:07:56.697Z,70
2017-05-26T08:09:05.656Z,60
2017-05-26T08:10:14.930Z,60
2017-05-26T08:11:23.973Z,50
2017-05-26T08:12:32.933Z,55
2017-05-26T08:13:41.890Z,60
2017-05-26T08:14:50.860Z,55
2017-05-26T08:16:00.151Z,60
2017-05-26T08:17:09.113Z,65
2017-05-26T08:18:18.072Z,55
2017-05-26T08:19:27.042Z,50
2017-05-26T08:20:35.999Z,65
2017-05-26T08:21:45.533Z,75
2017-05-26T08:22:54.583Z,95
2017-05-26T08:24:03.545Z,65
2017-05-26T08:25:12.590Z,55
2017-05-26T08:26:21.549Z,50
2017-05-26T08:27:30.757Z,65
2017-05-26T08:28:39.716Z,80
2017-05-26T08:29:48.678Z,50
2017-05-26T08:30:57.727Z,55
2017-05-26T08:32:06.691Z,60
2017-05-26T08:33:15.900Z,55
2017-05-26T08:34:24.869Z,75
2017-05-26T08:35:33.828Z,75
2017-05-26T08:36:42.791Z,75
2017-05-26T08:37:51.843Z,100
2017-05-26T08:39:01.380Z,100
2017-05-26T08:40:10.336Z,85
2017-05-26T08:41:19.308Z,80
2017-05-26T08:42:28.270Z,80
2017-05-26T08:43:37.231Z,60
2017-05-26T08:44:46.491Z,70
2017-05-26T08:45:55.452Z,70
2017-05-26T08:47:04.417Z,60
2017-05-26T08:48:13.700Z,50
2017-05-26T08:49:22.663Z,70
2017-05-26T08:50:31.923Z,125
2017-05-26T08:51:40.885Z,85
2017-05-26T08:52:49.850Z,90
2017-05-26T08:53:58.814Z,75
2017-05-26T08:55:07.773Z,115
2017-05-26T08:56:16.984Z,120
2017-05-26T08:57:26.036Z,155
2017-05-26T08:58:35.001Z,115
2017-05-26T08:59:43.961Z,165
2017-05-26T09:00:52.925Z,95
2017-05-26T09:02:02.209Z,115
2017-05-26T09:03:11.169Z,55
2017-05-26T09:04:20.131Z,75
2017-05-26T09:05:29.088Z,95
2017-05-26T09:06:38.043Z,100
2017-05-26T09:07:47.306Z,90
2017-05-26T09:08:56.268Z,120
2017-05-26T09:10:05.233Z,95
2017-05-26T09:11:14.193Z,70
2017-05-26T09:12:23.242Z,65
2017-05-26T09:13:32.458Z,85
2017-05-26T09:14:41.416Z,125
2017-05-26T09:15:50.380Z,100
2017-05-26T09:16:59.335Z,70
2017-05-26T09:18:08.300Z,100
2017-05-26T09:19:17.560Z,95
2017-05-26T09:20:26.521Z,80
2017-05-26T09:21:35.479Z,105
2017-05-26T09:22:44.439Z,125
2017-05-26T09:23:53.405Z,140
2017-05-26T09:25:02.622Z,105
2017-05-26T09:26:11.590Z,125
2017-05-26T09:27:20.555Z,110
2017-05-26T09:28:29.526Z,105
2017-05-26T09:29:38.484Z,90
2017-05-26T09:30:47.752Z,115
2017-05-26T09:31:56.715Z,100
2017-05-26T09:33:05.693Z,70
2017-05-26T09:34:14.651Z,75
2017-05-26T09:35:23.609Z,70
2017-05-26T09:36:32.826Z,75
2017-05-26T09:37:41.786Z,105
2017-05-26T09:38:50.749Z,120
2017-05-26T09:39:59.717Z,110
2017-05-26T09:41:08.828Z,100
2017-05-26T09:42:18.084Z,120
2017-05-26T09:43:27.052Z,145
2017-05-26T09:44:36.019Z,100
2017-05-26T09:45:44.978Z,90
2017-05-26T09:46:53.939Z,105
2017-05-26T09:48:03.203Z,90
2017-05-26T09:49:12.169Z,95
2017-05-26T09:50:21.133Z,110
2017-05-26T09:51:30.095Z,135
2017-05-26T09:52:39.055Z,125
2017-05-26T09:53:48.322Z,145
2017-05-26T09:54:57.283Z,95
2017-05-26T09:56:06.239Z,125
2017-05-26T09:57:15.209Z,120
2017-05-26T09:58:24.177Z,85
2017-05-26T09:59:33.395Z,75
2017-05-26T10:00:42.683Z,70
2017-05-26T10:01:51.704Z,80
2017-05-26T10:03:00.670Z,95
2017-05-26T10:04:09.631Z,95
2017-05-26T10:05:18.891Z,90
2017-05-26T10:06:28.176Z,90
2017-05-26T10:07:37.140Z,95
2017-05-26T10:08:46.109Z,90
2017-05-26T10:09:55.073Z,90
2017-05-26T10:11:04.335Z,105
2017-05-26T10:12:13.295Z,110
2017-05-26T10:13:22.263Z,115
2017-05-26T10:14:31.232Z,60
2017-05-26T10:15:40.196Z,115
2017-05-26T10:16:49.416Z,130
2017-05-26T10:17:58.476Z,125
2017-05-26T10:19:07.443Z,120
2017-05-26T10:20:16.405Z,125
2017-05-26T10:21:25.363Z,110
2017-05-26T10:22:34.585Z,100
2017-05-26T10:23:43.642Z,85
2017-05-26T10:24:52.693Z,60
2017-05-26T10:26:01.655Z,80
2017-05-26T10:27:10.619Z,85
2017-05-26T10:28:19.889Z,70
2017-05-26T10:29:28.858Z,55
2017-05-26T10:30:37.818Z,80
2017-05-26T10:31:46.780Z,80
2017-05-26T10:32:55.746Z,70
2017-05-26T10:34:04.960Z,40
2017-05-26T10:35:14.252Z,50
2017-05-26T10:36:23.214Z,85
2017-05-26T10:37:32.173Z,40
2017-05-26T10:38:41.138Z,75
2017-05-26T10:39:50.401Z,75
2017-05-26T10:40:59.370Z,70
2017-05-26T10:42:08.330Z,75
2017-05-26T10:43:17.303Z,75
2017-05-26T10:44:26.268Z,95
2017-05-26T10:45:35.538Z,95
2017-05-26T10:46:44.508Z,90
2017-05-26T10:47:53.481Z,85
2017-05-26T10:49:02.451Z,105
2017-05-26T10:50:11.472Z,115
2017-05-26T10:51:20.687Z,85
2017-05-26T10:52:29.708Z,65
2017-05-26T10:53:38.673Z,60
2017-05-26T10:54:47.636Z,90
2017-05-26T10:55:56.600Z,105
2017-05-26T10:57:05.811Z,100
2017-05-26T10:58:14.784Z,95
2017-05-26T10:59:23.750Z,90
2017-05-26T11:00:32.716Z,90
2017-05-26T11:01:41.676Z,110
2017-05-26T11:02:50.940Z,70
2017-05-26T11:03:59.897Z,90
2017-05-26T11:05:08.861Z,90
2017-05-26T11:06:17.825Z,85
2017-05-26T11:07:26.856Z,100
2017-05-26T11:08:36.067Z,95
2017-05-26T11:09:45.035Z,50
2017-05-26T11:10:54.000Z,80
2017-05-26T11:12:02.971Z,40
2017-05-26T11:13:11.936Z,35
2017-05-26T11:14:21.204Z,30
2017-05-26T11:15:30.165Z,65
2017-05-26T11:16:39.131Z,35
2017-05-26T11:17:48.093Z,45
2017-05-26T11:18:57.057Z,80
2017-05-26T11:20:06.600Z,60
2017-05-26T11:21:15.560Z,90
2017-05-26T11:22:24.621Z,90
2017-05-26T11:23:34.247Z,85
2017-05-26T11:24:43.212Z,80
2017-05-26T11:25:52.477Z,75
2017-05-26T11:27:01.442Z,80
2017-05-26T11:28:10.420Z,70
2017-05-26T11:29:19.385Z,80
2017-05-26T11:30:28.349Z,80
2017-05-26T11:31:37.564Z,95
2017-05-26T11:32:46.527Z,100
2017-05-26T11:33:55.831Z,95
2017-05-26T11:35:05.119Z,90
2017-05-26T11:36:14.084Z,105
2017-05-26T11:37:23.351Z,100
2017-05-26T11:38:32.319Z,50
2017-05-26T11:39:41.290Z,35
2017-05-26T11:40:50.346Z,35
2017-05-26T11:41:59.398Z,75
2017-05-26T11:43:08.618Z,90
2017-05-26T11:44:17.588Z,80
2017-05-26T11:45:26.722Z,75
2017-05-26T11:46:35.693Z,75
2017-05-26T11:47:44.662Z,75
2017-05-26T11:48:53.938Z,70
2017-05-26T11:50:02.901Z,75
2017-05-26T11:51:11.881Z,75
2017-05-26T11:52:20.844Z,80
2017-05-26T11:53:29.827Z,105
2017-05-26T11:54:39.042Z,80
2017-05-26T11:55:48.404Z,95
2017-05-26T11:56:57.705Z,95
2017-05-26T11:58:06.669Z,85
2017-05-26T11:59:15.631Z,80
2017-05-26T12:00:24.953Z,80
2017-05-26T12:01:33.918Z,40
2017-05-26T12:02:42.933Z,45
2017-05-26T12:03:51.906Z,50
2017-05-26T12:05:00.870Z,50
2017-05-26T12:06:10.079Z,85
2017-05-26T12:07:19.043Z,80
2017-05-26T12:08:28.007Z,85
2017-05-26T12:09:36.978Z,80
2017-05-26T12:10:45.936Z,85
2017-05-26T12:11:55.162Z,60
2017-05-26T12:13:04.125Z,85
2017-05-26T12:14:13.088Z,60
2017-05-26T12:15:22.050Z,50
2017-05-26T12:16:31.014Z,90
2017-05-26T12:17:40.228Z,50
2017-05-26T12:18:49.927Z,65
2017-05-26T12:19:58.895Z,100
2017-05-26T12:21:07.859Z,95
2017-05-26T12:22:16.826Z,85
2017-05-26T12:23:26.035Z,85
2017-05-26T12:24:34.997Z,85
2017-05-26T12:25:43.961Z,75
2017-05-26T12:26:52.928Z,60
2017-05-26T12:28:01.894Z,95
2017-05-26T12:29:11.153Z,55
2017-05-26T12:30:20.125Z,45
2017-05-26T12:31:29.082Z,50
2017-05-26T12:32:38.047Z,80
2017-05-26T12:33:47.020Z,55
2017-05-26T12:34:56.286Z,50
2017-05-26T12:36:05.253Z,50
2017-05-26T12:37:14.226Z,60
2017-05-26T12:38:23.184Z,85
2017-05-26T12:39:32.145Z,85
2017-05-26T12:40:41.363Z,90
2017-05-26T12:41:50.420Z,85
2017-05-26T12:42:59.389Z,85
2017-05-26T12:44:08.358Z,80
2017-05-26T12:45:17.316Z,90
2017-05-26T12:46:26.579Z,60
2017-05-26T12:47:35.542Z,95
2017-05-26T12:48:45.257Z,45
2017-05-26T12:49:54.222Z,85
2017-05-26T12:51:03.186Z,90
2017-05-26T12:52:12.398Z,90
2017-05-26T12:53:21.371Z,55
2017-05-26T12:54:30.333Z,55
2017-05-26T12:55:39.300Z,90
2017-05-26T12:56:48.351Z,65
2017-05-26T12:57:57.898Z,60
2017-05-26T12:59:06.861Z,55
2017-05-26T13:00:15.843Z,55
2017-05-26T13:01:24.807Z,50
2017-05-26T13:02:33.773Z,50
2017-05-26T13:03:42.989Z,50
2017-05-26T13:04:51.968Z,40
2017-05-26T13:06:00.930Z,30
2017-05-26T13:07:09.897Z,30
2017-05-26T13:08:18.860Z,30
2017-05-26T13:09:28.134Z,80
2017-05-26T13:10:37.102Z,80
2017-05-26T13:11:46.070Z,85
2017-05-26T13:12:55.040Z,40
2017-05-26T13:14:04.003Z,45
2017-05-26T13:15:13.270Z,40
2017-05-26T13:16:22.247Z,40
2017-05-26T13:17:31.214Z,40
2017-05-26T13:18:40.503Z,45
2017-05-26T13:19:49.463Z,40
2017-05-26T13:20:58.680Z,25
2017-05-26T13:22:07.642Z,25
2017-05-26T13:23:16.697Z,25
2017-05-26T13:24:25.659Z,25
2017-05-26T13:25:34.711Z,20
2017-05-26T13:26:43.932Z,25
2017-05-26T13:27:53.242Z,40
2017-05-26T13:29:02.533Z,25
2017-05-26T13:30:11.503Z,45
2017-05-26T13:31:20.475Z,30
2017-05-26T13:32:29.683Z,65
2017-05-26T13:33:38.645Z,80
2017-05-26T13:34:47.996Z,80
2017-05-26T13:35:56.962Z,80
2017-05-26T13:37:05.936Z,90
2017-05-26T13:38:15.198Z,85
2017-05-26T13:39:24.226Z,60
2017-05-26T13:40:33.188Z,25
2017-05-26T13:41:42.211Z,25
2017-05-26T13:42:51.172Z,70
2017-05-26T13:44:00.436Z,70
2017-05-26T13:45:09.400Z,70
2017-05-26T13:46:18.357Z,70
2017-05-26T13:47:27.322Z,70
2017-05-26T13:48:36.286Z,70
2017-05-26T13:49:45.499Z,70
2017-05-26T13:50:54.526Z,70
2017-05-26T13:52:03.490Z,75
2017-05-26T13:53:12.539Z,55
2017-05-26T13:54:21.500Z,30
2017-05-26T13:55:30.711Z,25
2017-05-26T13:56:39.675Z,25
2017-05-26T13:57:48.637Z,25
2017-05-26T13:58:57.608Z,70
2017-05-26T14:00:06.573Z,70
2017-05-26T14:01:15.843Z,70
2017-05-26T14:02:24.805Z,70
2017-05-26T14:03:33.765Z,70
2017-05-26T14:04:42.735Z,70
2017-05-26T14:05:52.104Z,70
2017-05-26T14:07:01.366Z,70
2017-05-26T14:08:10.334Z,70
2017-05-26T14:09:19.381Z,20
2017-05-26T14:10:28.344Z,20
2017-05-26T14:11:37.310Z,45
2017-05-26T14:12:46.577Z,70
2017-05-26T14:13:55.544Z,65
2017-05-26T14:15:04.509Z,65
2017-05-26T14:16:13.482Z,20
2017-05-26T14:17:22.447Z,20
2017-05-26T14:18:31.659Z,65
2017-05-26T14:19:40.616Z,65
2017-05-26T14:20:49.672Z,60
2017-05-26T14:21:58.638Z,60
2017-05-26T14:23:07.600Z,65
2017-05-26T14:24:16.813Z,65
2017-05-26T14:25:25.777Z,65
2017-05-26T14:26:34.804Z,65
2017-05-26T14:27:43.857Z,25
2017-05-26T14:28:52.904Z,25
2017-05-26T14:30:02.203Z,65
2017-05-26T14:31:11.166Z,20
2017-05-26T14:32:20.140Z,20
2017-05-26T14:33:29.105Z,15
2017-05-26T14:34:38.071Z,60
2017-05-26T14:35:47.377Z,15
2017-05-26T14:36:56.341Z,40
2017-05-26T14:38:05.303Z,60
2017-05-26T14:39:14.270Z,60
2017-05-26T14:40:23.233Z,60
2017-05-26T14:41:32.451Z,60
2017-05-26T14:42:41.414Z,60
2017-05-26T14:43:50.382Z,60
2017-05-26T14:44:59.343Z,60
2017-05-26T14:46:08.302Z,60
2017-05-26T14:47:17.612Z,65
2017-05-26T14:48:26.733Z,65
2017-05-26T14:49:35.700Z,65
2017-05-26T14:50:44.661Z,65
2017-05-26T14:51:53.625Z,65
2017-05-26T14:53:02.839Z,30
2017-05-26T14:54:11.811Z,25
2017-05-26T14:55:20.776Z,20
2017-05-26T14:56:30.073Z,20
2017-05-26T14:57:39.115Z,55
2017-05-26T14:58:48.326Z,55
2017-05-26T14:59:57.292Z,55
2017-05-26T15:01:06.352Z,60
2017-05-26T15:02:15.319Z,60
2017-05-26T15:03:24.282Z,60
2017-05-26T15:04:33.547Z,60
2017-05-26T15:05:42.510Z,55
2017-05-26T15:06:51.472Z,60
2017-05-26T15:08:00.443Z,60
2017-05-26T15:09:09.409Z,30
2017-05-26T15:10:18.759Z,30
2017-05-26T15:11:27.728Z,20
2017-05-26T15:12:36.710Z,45
2017-05-26T15:13:45.679Z,45
2017-05-26T15:14:54.638Z,40
2017-05-26T15:16:03.937Z,55
2017-05-26T15:17:12.905Z,15
2017-05-26T15:18:21.876Z,15
2017-05-26T15:19:31.163Z,15
2017-05-26T15:20:40.122Z,15
2017-05-26T15:21:49.337Z,20
2017-05-26T15:22:58.307Z,55
2017-05-26T15:24:07.274Z,50
2017-05-26T15:25:16.328Z,50
2017-05-26T15:26:25.376Z,50
2017-05-26T15:27:34.642Z,50
2017-05-26T15:28:43.604Z,50
2017-05-26T15:29:52.749Z,50
2017-05-26T15:31:02.130Z,50
2017-05-26T15:32:11.095Z,50
2017-05-26T15:33:20.312Z,50
2017-05-26T15:34:29.359Z,50
2017-05-26T15:35:38.405Z,50
2017-05-26T15:36:47.463Z,50
2017-05-26T15:37:56.427Z,55
2017-05-26T15:39:05.642Z,55
2017-05-26T15:40:14.609Z,65
2017-05-26T15:41:23.571Z,65
2017-05-26T15:42:32.531Z,60
2017-05-26T15:43:41.589Z,65
2017-05-26T15:44:50.856Z,65
2017-05-26T15:45:59.884Z,65
2017-05-26T15:47:08.938Z,65
2017-05-26T15:48:17.989Z,60
2017-05-26T15:49:26.954Z,60
2017-05-26T15:50:36.214Z,60
2017-05-26T15:51:45.176Z,55
2017-05-26T15:52:54.138Z,55
2017-05-26T15:54:03.104Z,55
2017-05-26T15:55:12.111Z,50
2017-05-26T15:56:21.374Z,60
2017-05-26T15:57:30.340Z,60
2017-05-26T15:58:39.311Z,60
2017-05-26T15:59:48.277Z,55
2017-05-26T16:00:57.241Z,55
2017-05-26T16:02:06.467Z,55
2017-05-26T16:03:15.433Z,50
2017-05-26T16:04:24.398Z,50
2017-05-26T16:05:33.366Z,45
2017-05-26T16:06:42.425Z,40
2017-05-26T16:07:51.645Z,40
2017-05-26T16:09:00.614Z,35
2017-05-26T16:10:09.582Z,35
2017-05-26T16:11:18.544Z,35
2017-05-26T16:12:27.512Z,35
2017-05-26T16:13:36.726Z,35
2017-05-26T16:14:45.696Z,35
2017-05-26T16:15:54.667Z,35
2017-05-26T16:17:03.631Z,35
2017-05-26T16:18:12.597Z,40
2017-05-26T16:19:21.819Z,40
2017-05-26T16:20:30.785Z,40
2017-05-26T16:21:39.749Z,40
2017-05-26T16:22:48.734Z,45
2017-05-26T16:23:57.703Z,45
2017-05-26T16:25:06.971Z,50
2017-05-26T16:26:15.943Z,35
2017-05-26T16:27:24.905Z,45
2017-05-26T16:28:33.869Z,45
2017-05-26T16:29:42.831Z,40